This is the latest recevied weather packets stored in our database for station/object DO6MJ-1. If no packets are shown the sender has not sent any weather packets the latest 10 day(s).
| Time | Temp. | Humidity | Pressure | Rain* | Wind** | Luminosity | Snow |
|---|---|---|---|---|---|---|---|
| 1787490217 | 21.11° C | 60% | 1013.9 hPa | 0 mm | - | - | - |
| 1787489017 | 18.89° C | 67% | 1014.1 hPa | 0 mm | - | - | - |
| 1787487817 | 18.33° C | 66% | 1014.4 hPa | 0 mm | - | - | - |
| 1787486616 | 17.78° C | 68% | 1014.5 hPa | 0 mm | - | - | - |
| 1787485416 | 18.89° C | 62% | 1014.3 hPa | 0 mm | - | - | - |
| 1787484216 | 21.11° C | 56% | 1014.1 hPa | 0 mm | - | - | - |
| 1787483015 | 20.56° C | 59% | 1014.2 hPa | 0 mm | - | - | - |
| 1787481815 | 20° C | 61% | 1014.1 hPa | 0 mm | - | - | - |
| 1787480615 | 19.44° C | 62% | 1014.1 hPa | 0 mm | - | - | - |
| 1787479415 | 19.44° C | 64% | 1014.3 hPa | 0 mm | - | - | - |
| 1787478214 | 18.89° C | 66% | 1014.1 hPa | 0 mm | - | - | - |
| 1787477014 | 18.33° C | 67% | 1014.2 hPa | 0 mm | - | - | - |
| 1787475814 | 19.44° C | 67% | 1014.4 hPa | 0 mm | - | - | - |
| 1787474614 | 17.78° C | 71% | 1014.3 hPa | 0 mm | - | - | - |
| 1787473413 | 17.22° C | 72% | 1014.2 hPa | 0 mm | - | - | - |
| 1787472213 | 16.67° C | 74% | 1014.3 hPa | 0 mm | - | - | - |
| 1787471013 | 16.67° C | 74% | 1014.3 hPa | 0 mm | - | - | - |
| 1787469812 | 16.67° C | 75% | 1014.2 hPa | 0 mm | - | - | - |
| 1787468612 | 16.11° C | 77% | 1014.1 hPa | 0 mm | - | - | - |
| 1787467412 | 15.56° C | 80% | 1014.1 hPa | 0 mm | - | - | - |
| 1787466211 | 15° C | 83% | 1013.8 hPa | 0 mm | - | - | - |
| 1787465011 | 13.89° C | 84% | 1013.7 hPa | 0 mm | - | - | - |
| 1787463811 | 13.33° C | 85% | 1013.7 hPa | 0 mm | - | - | - |
| 1787462611 | 13.33° C | 86% | 1013.6 hPa | 0 mm | - | - | - |
| 1787461410 | 12.78° C | 87% | 1013.4 hPa | 0 mm | - | - | - |
* Rain latest hour (hover to see other rain measurements)
** Current wind speed in m/s (hover to see current wind gust speed)